createdAt,value
2019-02-27T00:01:43.036Z,11.60
2019-02-27T00:04:11.965Z,11.50
2019-02-27T00:06:40.788Z,11.23
2019-02-27T00:09:11.096Z,10.73
2019-02-27T00:11:39.866Z,10.43
2019-02-27T00:14:08.692Z,10.67
2019-02-27T00:16:37.459Z,11.87
2019-02-27T00:19:06.556Z,11.30
2019-02-27T00:21:35.316Z,10.80
2019-02-27T00:24:04.225Z,11.63
2019-02-27T00:26:32.992Z,11.30
2019-02-27T00:29:01.759Z,11.57
2019-02-27T00:31:30.521Z,10.83
2019-02-27T00:33:59.926Z,10.50
2019-02-27T00:36:29.312Z,10.53
2019-02-27T00:38:58.549Z,11.90
2019-02-27T00:41:27.388Z,11.03
2019-02-27T00:44:01.064Z,10.50
2019-02-27T00:46:29.068Z,11.03
2019-02-27T00:48:59.303Z,11.20
2019-02-27T00:51:28.324Z,11.50
2019-02-27T00:53:58.439Z,10.50
2019-02-27T00:56:27.566Z,11.20
2019-02-27T00:58:59.959Z,11.40
2019-02-27T01:01:26.817Z,10.05
2019-02-27T01:03:59.251Z,9.70
2019-02-27T01:06:26.077Z,12.10
2019-02-27T01:08:54.908Z,11.25
2019-02-27T01:11:23.740Z,11.90
2019-02-27T01:13:52.508Z,10.15
2019-02-27T01:16:21.271Z,12.00
2019-02-27T01:18:50.971Z,10.50
2019-02-27T01:21:20.116Z,11.63
2019-02-27T01:23:49.011Z,11.17
2019-02-27T01:26:17.813Z,10.60
2019-02-27T01:28:46.585Z,11.03
2019-02-27T01:31:15.371Z,11.10
2019-02-27T01:33:44.196Z,11.15
2019-02-27T01:36:12.968Z,11.60
2019-02-27T01:38:41.792Z,11.30
2019-02-27T01:41:10.588Z,10.95
2019-02-27T01:43:39.887Z,10.63
2019-02-27T01:46:09.505Z,10.13
2019-02-27T01:48:42.766Z,10.13
2019-02-27T01:51:08.896Z,10.30
2019-02-27T01:53:37.925Z,8.88
2019-02-27T01:56:08.229Z,10.55
2019-02-27T01:58:36.980Z,9.35
2019-02-27T02:01:05.925Z,10.13
2019-02-27T02:03:34.686Z,11.08
2019-02-27T02:06:04.203Z,10.98
2019-02-27T02:08:32.960Z,10.15
2019-02-27T02:11:02.148Z,8.85
2019-02-27T02:13:53.984Z,9.08
2019-02-27T02:16:48.817Z,9.08
2019-02-27T02:19:53.988Z,9.65
2019-02-27T02:22:38.931Z,8.63
2019-02-27T02:25:52.533Z,9.80
2019-02-27T02:28:52.590Z,8.28
2019-02-27T02:31:42.485Z,7.37
2019-02-27T02:34:45.497Z,7.67
2019-02-27T02:37:54.177Z,8.20
2019-02-27T02:41:07.937Z,8.30
2019-02-27T02:44:03.744Z,7.70
2019-02-27T02:46:45.474Z,6.62
2019-02-27T02:49:18.924Z,7.17
2019-02-27T02:52:15.018Z,7.00
2019-02-27T02:55:16.440Z,6.20
2019-02-27T02:57:58.794Z,7.15
2019-02-27T03:00:39.356Z,8.03
2019-02-27T03:03:44.793Z,8.03
2019-02-27T03:06:52.295Z,6.37
2019-02-27T03:09:59.721Z,6.03
2019-02-27T03:13:31.276Z,5.55
2019-02-27T03:16:21.009Z,5.87
2019-02-27T03:19:19.107Z,5.60
2019-02-27T03:22:19.497Z,5.08
2019-02-27T03:25:19.641Z,4.97
2019-02-27T03:28:12.405Z,4.72
2019-02-27T03:31:19.266Z,5.15
2019-02-27T03:34:34.735Z,4.20
2019-02-27T03:37:27.861Z,3.83
2019-02-27T03:40:15.048Z,3.05
2019-02-27T03:43:10.014Z,4.25
2019-02-27T03:46:08.409Z,3.30
2019-02-27T03:49:21.248Z,2.60
2019-02-27T03:52:40.424Z,4.28
2019-02-27T03:55:41.071Z,3.37
2019-02-27T03:58:21.893Z,3.12
2019-02-27T04:01:18.451Z,4.30
2019-02-27T04:04:19.402Z,3.40
2019-02-27T04:07:37.411Z,3.40
2019-02-27T04:10:06.256Z,3.05
2019-02-27T04:12:35.016Z,3.90
2019-02-27T04:15:04.637Z,4.08
2019-02-27T04:17:32.100Z,4.05
2019-02-27T04:20:01.001Z,3.17
2019-02-27T04:22:29.763Z,3.40
2019-02-27T04:24:58.549Z,3.35
2019-02-27T04:27:27.306Z,2.83
2019-02-27T04:29:56.084Z,3.10
2019-02-27T04:32:24.853Z,3.30
2019-02-27T04:34:53.613Z,3.40
2019-02-27T04:37:22.360Z,3.27
2019-02-27T04:39:51.129Z,3.30
2019-02-27T04:42:19.880Z,3.60
2019-02-27T04:44:48.644Z,3.00
2019-02-27T04:47:17.404Z,3.50
2019-02-27T04:49:46.174Z,2.83
2019-02-27T04:52:14.927Z,3.33
2019-02-27T04:54:43.699Z,3.70
2019-02-27T04:57:12.457Z,3.15
2019-02-27T04:59:41.228Z,3.00
2019-02-27T05:02:12.082Z,3.12
2019-02-27T05:04:40.568Z,3.30
2019-02-27T05:07:09.342Z,3.70
2019-02-27T05:09:38.184Z,3.75
2019-02-27T05:12:06.947Z,3.45
2019-02-27T05:14:35.797Z,3.35
2019-02-27T05:17:04.544Z,3.60
2019-02-27T05:19:36.806Z,3.27
2019-02-27T05:22:03.804Z,3.72
2019-02-27T05:24:32.632Z,3.98
2019-02-27T05:27:01.404Z,3.02
2019-02-27T05:29:38.381Z,3.05
2019-02-27T05:32:07.145Z,3.27
2019-02-27T05:34:35.908Z,3.10
2019-02-27T05:37:05.311Z,3.35
2019-02-27T05:39:34.780Z,3.30
2019-02-27T05:42:15.686Z,2.80
2019-02-27T05:44:55.509Z,3.25
2019-02-27T05:47:21.210Z,3.22
2019-02-27T05:49:49.977Z,4.05
2019-02-27T05:52:18.733Z,3.75
2019-02-27T05:54:50.505Z,3.60
2019-02-27T05:57:21.049Z,3.70
2019-02-27T05:59:49.745Z,3.45
2019-02-27T06:02:19.464Z,3.37
2019-02-27T06:04:48.225Z,4.17
2019-02-27T06:07:19.024Z,3.72
2019-02-27T06:09:48.984Z,4.62
2019-02-27T06:12:17.919Z,4.70
2019-02-27T06:14:54.797Z,4.17
2019-02-27T06:17:23.113Z,3.90
2019-02-27T06:19:52.871Z,4.25
2019-02-27T06:22:21.628Z,5.05
2019-02-27T06:24:50.397Z,4.10
2019-02-27T06:27:19.161Z,4.15
2019-02-27T06:29:47.938Z,4.33
2019-02-27T06:32:18.996Z,4.15
2019-02-27T06:34:47.760Z,4.60
2019-02-27T06:37:16.513Z,4.28
2019-02-27T06:39:45.286Z,4.70
2019-02-27T06:42:14.214Z,4.12
2019-02-27T06:44:43.080Z,4.03
2019-02-27T06:47:11.862Z,5.20
2019-02-27T06:49:40.624Z,5.22
2019-02-27T06:52:15.732Z,4.65
2019-02-27T06:54:44.495Z,4.30
2019-02-27T06:57:13.284Z,4.70
2019-02-27T06:59:42.113Z,5.08
2019-02-27T07:02:10.899Z,4.60
2019-02-27T07:04:40.271Z,4.20
2019-02-27T07:07:12.212Z,5.93
2019-02-27T07:09:43.236Z,4.70
2019-02-27T07:12:11.450Z,4.83
2019-02-27T07:14:40.205Z,4.57
2019-02-27T07:17:08.965Z,4.60
2019-02-27T07:19:37.713Z,5.10
2019-02-27T07:22:09.229Z,7.53
2019-02-27T07:24:36.964Z,6.10
2019-02-27T07:27:05.761Z,7.10
2019-02-27T07:29:34.516Z,9.23
2019-02-27T07:32:03.294Z,13.20
2019-02-27T07:34:32.040Z,9.30
2019-02-27T07:37:00.801Z,11.70
2019-02-27T07:39:32.632Z,5.07
2019-02-27T07:42:00.042Z,4.10
2019-02-27T07:44:28.789Z,4.33
2019-02-27T07:47:00.613Z,3.60
2019-02-27T07:49:30.952Z,3.57
2019-02-27T07:51:59.908Z,4.10
2019-02-27T07:54:37.665Z,4.00
2019-02-27T07:57:14.906Z,3.90
2019-02-27T07:59:49.636Z,4.33
2019-02-27T08:02:18.631Z,4.57
2019-02-27T08:04:47.458Z,3.20
2019-02-27T08:07:22.136Z,3.57
2019-02-27T08:09:51.054Z,2.50
2019-02-27T08:12:20.685Z,2.83
2019-02-27T08:14:49.579Z,3.10
2019-02-27T08:17:18.386Z,3.20
2019-02-27T08:19:47.201Z,2.60
2019-02-27T08:22:16.086Z,2.77
2019-02-27T08:24:45.021Z,2.90
2019-02-27T08:27:13.904Z,2.63
2019-02-27T08:29:42.774Z,2.77
2019-02-27T08:32:11.598Z,2.70
2019-02-27T08:34:40.385Z,2.90
2019-02-27T08:37:09.182Z,2.70
2019-02-27T08:39:37.973Z,3.30
2019-02-27T08:42:12.582Z,3.30
2019-02-27T08:44:42.996Z,3.57
2019-02-27T08:47:11.969Z,3.50
2019-02-27T08:49:40.802Z,4.50
2019-02-27T08:52:09.597Z,5.37
2019-02-27T08:54:38.454Z,5.20
2019-02-27T08:57:07.893Z,4.77
2019-02-27T08:59:39.656Z,4.53
2019-02-27T09:02:08.813Z,4.03
2019-02-27T09:04:37.740Z,9.27
2019-02-27T09:07:06.647Z,4.67
2019-02-27T09:09:36.217Z,3.70
2019-02-27T09:12:05.437Z,4.53
2019-02-27T09:14:34.344Z,3.50
2019-02-27T09:17:03.356Z,4.03
2019-02-27T09:19:32.286Z,3.90
2019-02-27T09:22:02.417Z,3.77
2019-02-27T09:24:31.471Z,3.07
2019-02-27T09:27:00.429Z,3.57
2019-02-27T09:29:29.375Z,3.07
2019-02-27T09:31:58.374Z,2.80
2019-02-27T09:34:27.517Z,3.30
2019-02-27T09:36:56.439Z,2.93
2019-02-27T09:39:31.133Z,2.87
2019-02-27T09:41:59.015Z,2.60
2019-02-27T09:44:31.044Z,2.47
2019-02-27T09:46:59.937Z,2.47
2019-02-27T09:49:28.826Z,3.30
2019-02-27T09:51:57.683Z,3.20
2019-02-27T09:54:26.586Z,2.80
2019-02-27T09:56:55.516Z,2.87
2019-02-27T09:59:24.491Z,2.13
2019-02-27T10:01:53.414Z,2.07
2019-02-27T10:04:22.454Z,2.00
2019-02-27T10:06:51.447Z,1.73
2019-02-27T10:09:20.801Z,1.60
2019-02-27T10:11:52.204Z,2.10
2019-02-27T10:14:20.360Z,2.10
2019-02-27T10:16:49.339Z,2.23
2019-02-27T10:19:18.283Z,2.50
2019-02-27T10:21:47.610Z,1.90
2019-02-27T10:24:16.673Z,1.60
2019-02-27T10:26:45.527Z,2.03
2019-02-27T10:29:14.518Z,2.60
2019-02-27T10:31:43.531Z,2.40
2019-02-27T10:34:14.574Z,2.67
2019-02-27T10:36:43.043Z,3.10
2019-02-27T10:39:12.059Z,3.40
2019-02-27T10:41:41.000Z,3.50
2019-02-27T10:44:09.968Z,3.47
2019-02-27T10:46:38.915Z,2.80
2019-02-27T10:49:07.992Z,2.80
2019-02-27T10:51:36.957Z,3.80
2019-02-27T10:54:05.956Z,3.80
2019-02-27T10:56:34.887Z,3.70
2019-02-27T10:59:03.852Z,3.73
2019-02-27T11:01:36.122Z,3.47
2019-02-27T11:04:03.815Z,3.60
2019-02-27T11:06:34.256Z,4.13
2019-02-27T11:09:04.681Z,4.20
2019-02-27T11:11:34.170Z,3.73
2019-02-27T11:14:03.161Z,4.20
2019-02-27T11:16:32.133Z,5.33
2019-02-27T11:19:01.094Z,4.53
2019-02-27T11:21:30.098Z,4.10
2019-02-27T11:23:59.024Z,5.10
2019-02-27T11:26:28.006Z,5.17
2019-02-27T11:28:57.787Z,6.30
2019-02-27T11:31:27.040Z,5.70
2019-02-27T11:33:55.956Z,6.23
2019-02-27T11:36:24.906Z,6.07
2019-02-27T11:38:56.640Z,5.07
2019-02-27T11:41:24.529Z,5.50
2019-02-27T11:43:53.434Z,5.70
2019-02-27T11:46:22.290Z,5.87
2019-02-27T11:48:51.246Z,5.17
2019-02-27T11:51:20.860Z,6.30
2019-02-27T11:53:49.844Z,6.57
2019-02-27T11:56:20.307Z,5.70
2019-02-27T11:58:49.359Z,4.30
2019-02-27T12:01:21.821Z,3.87
2019-02-27T12:03:48.979Z,4.27
2019-02-27T12:06:17.927Z,3.27
2019-02-27T12:08:46.822Z,3.30
2019-02-27T12:11:15.751Z,3.00
2019-02-27T12:13:44.744Z,3.70
2019-02-27T12:16:19.624Z,4.77
2019-02-27T12:18:48.695Z,4.33
2019-02-27T12:21:17.650Z,4.07
2019-02-27T12:23:47.179Z,4.40
2019-02-27T12:26:16.077Z,3.60
2019-02-27T12:28:45.131Z,4.37
2019-02-27T12:31:14.442Z,4.70
2019-02-27T12:33:43.456Z,5.37
2019-02-27T12:36:12.550Z,4.47
2019-02-27T12:38:42.325Z,4.37
2019-02-27T12:41:12.524Z,5.37
2019-02-27T12:43:41.424Z,4.20
2019-02-27T12:46:10.434Z,3.33
2019-02-27T12:48:39.367Z,2.97
2019-02-27T12:51:08.290Z,3.33
2019-02-27T12:53:37.179Z,3.80
2019-02-27T12:56:07.854Z,3.87
2019-02-27T12:58:36.868Z,4.53
2019-02-27T13:01:06.988Z,3.97
2019-02-27T13:03:35.973Z,4.30
2019-02-27T13:06:05.164Z,3.90
2019-02-27T13:08:34.010Z,4.27
2019-02-27T13:11:05.245Z,4.40
2019-02-27T13:13:33.548Z,4.10
2019-02-27T13:16:02.514Z,4.17
2019-02-27T13:18:32.054Z,4.63
2019-02-27T13:21:01.658Z,3.17
2019-02-27T13:23:30.642Z,2.90
2019-02-27T13:26:00.432Z,3.40
2019-02-27T13:28:30.167Z,2.60
2019-02-27T13:30:59.003Z,2.70
2019-02-27T13:33:27.851Z,2.43
2019-02-27T13:35:59.609Z,2.80
2019-02-27T13:38:27.765Z,2.43
2019-02-27T13:40:56.758Z,3.30
2019-02-27T13:43:27.121Z,2.30
2019-02-27T13:45:56.309Z,3.40
2019-02-27T13:48:28.761Z,2.67
2019-02-27T13:50:59.333Z,2.67
2019-02-27T13:53:28.200Z,2.50
2019-02-27T13:55:57.086Z,3.40
2019-02-27T13:58:26.091Z,2.27
2019-02-27T14:00:55.090Z,2.40
2019-02-27T14:03:29.964Z,2.53
2019-02-27T14:06:00.472Z,3.93
2019-02-27T14:08:32.171Z,2.57
2019-02-27T14:11:00.271Z,2.73
2019-02-27T14:13:30.791Z,3.10
2019-02-27T14:16:00.833Z,3.40
2019-02-27T14:18:30.708Z,2.70
2019-02-27T14:21:01.699Z,2.60
2019-02-27T14:23:30.286Z,2.93
2019-02-27T14:25:59.250Z,3.00
2019-02-27T14:28:28.164Z,3.70
2019-02-27T14:30:56.994Z,2.67
2019-02-27T14:33:25.916Z,2.30
2019-02-27T14:35:54.782Z,2.87
2019-02-27T14:38:23.630Z,3.30
2019-02-27T14:40:55.932Z,3.70
2019-02-27T14:43:27.204Z,5.10
2019-02-27T14:45:55.497Z,3.47
2019-02-27T14:48:30.367Z,5.80
2019-02-27T14:50:59.403Z,4.93
2019-02-27T14:53:34.545Z,3.37
2019-02-27T14:56:10.309Z,3.60
2019-02-27T14:58:39.168Z,5.00
2019-02-27T15:01:16.835Z,4.57
2019-02-27T15:03:45.791Z,4.83
2019-02-27T15:06:15.921Z,4.10
2019-02-27T15:08:57.972Z,4.70
2019-02-27T15:11:22.010Z,3.80
2019-02-27T15:13:50.961Z,4.40
2019-02-27T15:16:21.786Z,4.37
2019-02-27T15:18:55.109Z,4.50
2019-02-27T15:21:20.936Z,4.00
2019-02-27T15:23:49.850Z,5.10
2019-02-27T15:26:18.800Z,3.97
2019-02-27T15:28:49.841Z,4.83
2019-02-27T15:31:21.324Z,4.40
2019-02-27T15:33:49.553Z,5.17
2019-02-27T15:36:18.622Z,4.97
2019-02-27T15:38:47.570Z,4.13
2019-02-27T15:41:16.492Z,4.70
2019-02-27T15:43:45.400Z,5.60
2019-02-27T15:46:14.550Z,5.27
2019-02-27T15:48:49.316Z,5.57
2019-02-27T15:51:18.660Z,5.40
2019-02-27T15:53:50.003Z,5.90
2019-02-27T15:56:18.343Z,5.40
2019-02-27T15:58:47.218Z,5.70
2019-02-27T16:01:16.146Z,6.07
2019-02-27T16:03:46.578Z,5.60
2019-02-27T16:06:15.754Z,5.63
2019-02-27T16:08:44.596Z,5.30
2019-02-27T16:11:14.045Z,5.10
2019-02-27T16:13:44.070Z,5.53
2019-02-27T16:16:13.034Z,6.40
2019-02-27T16:18:41.858Z,5.80
2019-02-27T16:21:12.106Z,5.07
2019-02-27T16:23:41.130Z,5.37
2019-02-27T16:26:10.069Z,6.80
2019-02-27T16:28:38.983Z,6.17
2019-02-27T16:31:07.992Z,6.00
2019-02-27T16:33:36.911Z,6.40
2019-02-27T16:36:05.900Z,7.17
2019-02-27T16:38:34.859Z,6.10
2019-02-27T16:41:03.962Z,4.97
2019-02-27T16:43:33.006Z,6.47
2019-02-27T16:46:01.934Z,6.13
2019-02-27T16:48:31.037Z,5.43
2019-02-27T16:51:01.409Z,4.30
2019-02-27T16:53:30.303Z,5.03
2019-02-27T16:55:59.151Z,5.67
2019-02-27T16:58:32.647Z,4.80
2019-02-27T17:01:02.066Z,7.80
2019-02-27T17:03:30.955Z,7.60
2019-02-27T17:05:59.894Z,5.93
2019-02-27T17:08:33.031Z,6.30
2019-02-27T17:11:02.065Z,5.60
2019-02-27T17:13:30.975Z,5.60
2019-02-27T17:15:59.918Z,6.00
2019-02-27T17:18:29.317Z,5.60
2019-02-27T17:20:58.300Z,6.07
2019-02-27T17:23:27.199Z,5.80
2019-02-27T17:25:56.060Z,6.27
2019-02-27T17:28:24.961Z,5.30
2019-02-27T17:30:53.858Z,4.40
2019-02-27T17:33:22.770Z,4.90
2019-02-27T17:35:53.097Z,4.30
2019-02-27T17:38:22.150Z,4.40
2019-02-27T17:40:52.469Z,6.20
2019-02-27T17:43:21.952Z,5.20
2019-02-27T17:45:51.179Z,5.70
2019-02-27T17:48:20.263Z,5.70
2019-02-27T17:50:49.112Z,6.07
2019-02-27T17:53:20.416Z,5.67
2019-02-27T17:55:48.829Z,5.80
2019-02-27T17:58:23.619Z,6.03
2019-02-27T18:00:55.494Z,6.50
2019-02-27T18:03:25.050Z,5.00
2019-02-27T18:05:56.325Z,6.13
2019-02-27T18:08:24.708Z,6.20
2019-02-27T18:10:53.669Z,6.50
2019-02-27T18:13:22.545Z,6.47
2019-02-27T18:15:53.200Z,6.67
2019-02-27T18:18:25.112Z,5.87
2019-02-27T18:20:56.755Z,5.87
2019-02-27T18:23:25.282Z,5.77
2019-02-27T18:25:54.878Z,4.90
2019-02-27T18:28:23.810Z,6.07
2019-02-27T18:30:53.698Z,5.43
2019-02-27T18:33:22.911Z,5.13
2019-02-27T18:35:51.970Z,5.23
2019-02-27T18:38:37.786Z,5.07
2019-02-27T18:41:06.645Z,5.63
2019-02-27T18:43:35.930Z,6.63
2019-02-27T18:46:05.091Z,4.67
2019-02-27T18:48:33.992Z,5.53
2019-02-27T18:51:02.891Z,6.00
2019-02-27T18:53:32.348Z,5.27
2019-02-27T18:56:02.659Z,6.00
2019-02-27T18:58:31.772Z,4.50
2019-02-27T19:01:00.844Z,5.00
2019-02-27T19:03:29.778Z,5.03
2019-02-27T19:05:58.858Z,5.00
2019-02-27T19:08:30.848Z,4.70
2019-02-27T19:10:59.768Z,5.03
2019-02-27T19:13:31.708Z,5.43
2019-02-27T19:15:59.604Z,5.00
2019-02-27T19:18:28.694Z,5.57
2019-02-27T19:20:59.309Z,5.80
2019-02-27T19:23:28.367Z,6.30
2019-02-27T19:25:57.360Z,5.10
2019-02-27T19:28:26.274Z,5.03
2019-02-27T19:30:55.277Z,4.60
2019-02-27T19:33:24.264Z,4.50
2019-02-27T19:35:55.832Z,5.10
2019-02-27T19:38:23.993Z,5.87
2019-02-27T19:40:53.035Z,6.70
2019-02-27T19:43:21.913Z,5.70
2019-02-27T19:45:50.863Z,5.70
2019-02-27T19:48:19.823Z,4.80
2019-02-27T19:50:48.893Z,4.83
2019-02-27T19:53:17.826Z,5.37
2019-02-27T19:55:46.853Z,4.50
2019-02-27T19:58:18.073Z,5.80
2019-02-27T20:00:49.440Z,5.47
2019-02-27T20:03:17.159Z,5.93
2019-02-27T20:05:46.174Z,5.60
2019-02-27T20:08:15.083Z,4.73
2019-02-27T20:10:44.405Z,4.97
2019-02-27T20:13:13.488Z,5.40
2019-02-27T20:15:45.675Z,4.90
2019-02-27T20:18:14.078Z,5.60
2019-02-27T20:20:43.301Z,5.17
2019-02-27T20:23:12.303Z,4.87
2019-02-27T20:25:44.197Z,5.93
2019-02-27T20:28:12.017Z,4.80
2019-02-27T20:30:40.992Z,5.60
2019-02-27T20:33:09.915Z,5.10
2019-02-27T20:35:38.893Z,5.20
2019-02-27T20:38:07.866Z,5.30
2019-02-27T20:40:36.853Z,5.20
2019-02-27T20:43:07.908Z,4.40
2019-02-27T20:45:36.871Z,5.10
2019-02-27T20:48:05.894Z,5.23
2019-02-27T20:50:37.374Z,4.90
2019-02-27T20:53:06.646Z,4.70
2019-02-27T20:55:35.612Z,5.50
2019-02-27T20:58:04.602Z,5.70
2019-02-27T21:00:36.509Z,5.17
2019-02-27T21:03:04.270Z,5.77
2019-02-27T21:05:33.692Z,5.40
2019-02-27T21:08:02.729Z,5.60
2019-02-27T21:10:31.959Z,5.60
2019-02-27T21:13:00.875Z,5.73
2019-02-27T21:15:32.563Z,5.67
2019-02-27T21:18:00.591Z,5.53
2019-02-27T21:20:29.628Z,4.87
2019-02-27T21:22:59.987Z,5.17
2019-02-27T21:25:29.590Z,5.20
2019-02-27T21:27:58.503Z,4.90
2019-02-27T21:30:27.437Z,4.00
2019-02-27T21:32:56.252Z,4.37
2019-02-27T21:35:28.874Z,5.30
2019-02-27T21:37:55.678Z,4.93
2019-02-27T21:40:24.661Z,5.03
2019-02-27T21:42:53.538Z,4.97
2019-02-27T21:45:22.575Z,5.60
2019-02-27T21:47:52.746Z,5.50
2019-02-27T21:50:22.119Z,5.50
2019-02-27T21:52:54.307Z,5.30
2019-02-27T21:55:22.131Z,5.53
2019-02-27T21:57:51.184Z,6.20
2019-02-27T22:00:21.996Z,5.40
2019-02-27T22:02:51.007Z,5.20
2019-02-27T22:05:20.050Z,5.50
2019-02-27T22:07:49.103Z,5.50
2019-02-27T22:10:19.729Z,5.20
2019-02-27T22:12:48.907Z,5.47
2019-02-27T22:15:23.439Z,5.33
2019-02-27T22:17:52.369Z,5.40
2019-02-27T22:20:21.344Z,5.20
2019-02-27T22:22:50.410Z,6.13
2019-02-27T22:25:19.318Z,5.27
2019-02-27T22:27:48.314Z,4.77
2019-02-27T22:30:17.637Z,5.03
2019-02-27T22:32:48.074Z,5.30
2019-02-27T22:35:17.269Z,5.60
2019-02-27T22:37:51.322Z,5.40
2019-02-27T22:40:17.091Z,6.33
2019-02-27T22:42:48.464Z,5.20
2019-02-27T22:45:17.942Z,6.17
2019-02-27T22:47:46.848Z,6.20
2019-02-27T22:50:16.301Z,5.70
2019-02-27T22:52:45.357Z,5.40
2019-02-27T22:55:15.550Z,6.50
2019-02-27T22:57:44.533Z,5.60
2019-02-27T23:00:43.100Z,5.53
2019-02-27T23:03:10.821Z,6.53
2019-02-27T23:05:39.809Z,6.40
2019-02-27T23:08:08.788Z,6.00
2019-02-27T23:10:37.722Z,6.60
2019-02-27T23:13:12.454Z,7.00
2019-02-27T23:15:39.198Z,7.03
2019-02-27T23:58:31.399Z,5.30
